Time;durP1;ratioP1;P1;durP2;ratioP2;P2;SDS_P1;SDS_P2;PMS_P1;PMS_P2;Temp;Humidity;BMP_temperature;BMP_pressure;BME280_temperature;BME280_humidity;BME280_pressure;Samples;Min_cycle;Max_cycle;Signal;HPM_P1;HPM_P2
2021/06/30 00:01:30;;;;;;;2.00;1.80;;;17.20;99.90;;;;;;4986520;28;20189;-57
2021/06/30 00:03:56;;;;;;;2.37;1.83;;;17.20;99.90;;;;;;4988010;28;20183;-56
2021/06/30 00:06:21;;;;;;;3.03;1.90;;;17.20;99.90;;;;;;4985993;28;20217;-57
2021/06/30 00:08:48;;;;;;;2.43;1.70;;;17.20;99.90;;;;;;4981778;28;20239;-58
2021/06/30 00:11:15;;;;;;;2.38;2.20;;;17.10;99.90;;;;;;4981926;28;20184;-58
2021/06/30 00:13:42;;;;;;;2.35;1.92;;;17.20;99.90;;;;;;4980663;28;20196;-57
2021/06/30 00:16:08;;;;;;;2.25;2.05;;;16.90;99.90;;;;;;4992318;28;20184;-58
2021/06/30 00:18:34;;;;;;;1.92;1.77;;;17.00;99.90;;;;;;4986475;28;20294;-58
2021/06/30 00:21:00;;;;;;;2.60;1.60;;;17.10;99.90;;;;;;4989043;28;20183;-58
2021/06/30 00:23:25;;;;;;;1.80;1.70;;;17.10;99.90;;;;;;4979034;28;20696;-57
2021/06/30 00:25:51;;;;;;;1.90;1.80;;;17.10;99.90;;;;;;4985976;28;20275;-56
2021/06/30 00:28:16;;;;;;;4.70;1.90;;;17.10;99.90;;;;;;4988000;28;20203;-56
2021/06/30 00:30:42;;;;;;;2.40;1.90;;;16.90;99.90;;;;;;4984120;28;20562;-57
2021/06/30 00:33:08;;;;;;;2.00;1.80;;;17.10;99.90;;;;;;4991634;28;20266;-57
2021/06/30 00:35:34;;;;;;;2.73;1.97;;;17.10;99.90;;;;;;4979640;28;20278;-58
2021/06/30 00:37:59;;;;;;;4.37;1.80;;;17.10;99.90;;;;;;4986481;28;20269;-58
2021/06/30 00:40:25;;;;;;;5.40;1.67;;;17.10;99.90;;;;;;4984686;28;20649;-57
2021/06/30 00:42:51;;;;;;;2.40;2.20;;;17.20;99.90;;;;;;4988277;28;20282;-57
2021/06/30 00:45:19;;;;;;;1.60;1.50;;;17.30;99.90;;;;;;4990896;28;20180;-57
2021/06/30 00:47:44;;;;;;;2.13;1.75;;;17.30;99.90;;;;;;4992135;28;20477;-58
2021/06/30 00:50:13;;;;;;;1.80;1.70;;;17.20;99.90;;;;;;4981232;28;20196;-57
2021/06/30 00:52:38;;;;;;;1.63;1.52;;;17.30;99.90;;;;;;4980019;28;21021;-58
2021/06/30 00:55:04;;;;;;;2.90;1.63;;;17.30;99.90;;;;;;4991699;28;20230;-57
2021/06/30 00:57:30;;;;;;;1.45;1.35;;;17.50;99.90;;;;;;4984692;28;20242;-57
2021/06/30 00:59:56;;;;;;;1.40;1.30;;;17.40;99.90;;;;;;4987225;28;20629;-57
2021/06/30 01:02:23;;;;;;;1.60;1.50;;;17.50;99.90;;;;;;4985739;28;20191;-58
2021/06/30 01:04:49;;;;;;;1.70;1.60;;;17.50;99.90;;;;;;4984423;28;20470;-57
2021/06/30 01:07:15;;;;;;;3.92;1.40;;;17.10;99.90;;;;;;4980935;28;20187;-57
2021/06/30 01:09:40;;;;;;;4.37;1.43;;;17.70;99.90;;;;;;4990614;28;20548;-58
2021/06/30 01:12:06;;;;;;;1.77;1.33;;;17.60;99.90;;;;;;4987101;28;20450;-57
2021/06/30 01:14:34;;;;;;;1.10;1.10;;;17.60;99.90;;;;;;4978978;28;20229;-58
2021/06/30 01:17:01;;;;;;;1.30;1.20;;;17.50;99.90;;;;;;4985373;28;20219;-57
2021/06/30 01:19:27;;;;;;;2.40;1.00;;;17.50;99.90;;;;;;4984255;28;20287;-56
2021/06/30 01:21:54;;;;;;;3.05;1.40;;;17.50;99.90;;;;;;4983394;28;20187;-58
2021/06/30 01:24:20;;;;;;;1.30;1.20;;;17.50;99.90;;;;;;4991229;28;20184;-57
2021/06/30 01:26:46;;;;;;;1.85;1.23;;;17.20;99.90;;;;;;4975620;28;20546;-57
2021/06/30 01:29:13;;;;;;;1.92;1.00;;;17.40;99.90;;;;;;4989345;28;20211;-57
2021/06/30 01:31:38;;;;;;;1.80;1.30;;;17.40;99.90;;;;;;4983040;28;20194;-57
2021/06/30 01:34:04;;;;;;;1.30;1.20;;;17.30;99.90;;;;;;4989763;28;20183;-57
2021/06/30 01:36:49;;;;;;;1.47;1.37;;;17.30;99.90;;;;;;4989784;28;20429;-57
2021/06/30 01:39:15;;;;;;;1.85;1.20;;;17.40;99.90;;;;;;4983650;28;20913;-57
2021/06/30 01:41:42;;;;;;;1.02;0.90;;;17.20;99.90;;;;;;4981824;28;20646;-57
2021/06/30 01:44:08;;;;;;;1.30;1.20;;;17.20;99.90;;;;;;4986515;28;20205;-58
2021/06/30 01:46:34;;;;;;;1.67;1.35;;;17.10;99.90;;;;;;4987789;28;20560;-56
2021/06/30 01:49:00;;;;;;;1.20;0.80;;;17.20;99.90;;;;;;4980891;28;20203;-57
2021/06/30 01:51:26;;;;;;;1.27;1.00;;;17.20;99.90;;;;;;4979024;28;20295;-56
2021/06/30 01:53:59;;;;;;;1.10;1.00;;;16.90;99.90;;;;;;4989103;28;20652;-57
2021/06/30 01:56:50;;;;;;;1.10;1.00;;;16.90;99.90;;;;;;4985367;28;20211;-57
2021/06/30 01:59:16;;;;;;;5.88;1.17;;;16.90;99.90;;;;;;4988109;28;20672;-57
2021/06/30 02:01:42;;;;;;;1.38;1.00;;;17.10;99.90;;;;;;4987085;28;20184;-58
2021/06/30 02:04:09;;;;;;;1.42;1.17;;;16.90;99.90;;;;;;4985376;28;20207;-56
2021/06/30 02:06:40;;;;;;;1.95;1.05;;;16.10;99.90;;;;;;4975590;28;20188;-58
2021/06/30 02:09:08;;;;;;;1.52;1.00;;;16.70;99.90;;;;;;4984703;28;20211;-57
2021/06/30 02:11:34;;;;;;;1.00;0.95;;;16.20;99.90;;;;;;5003439;28;20196;-57
2021/06/30 02:14:00;;;;;;;1.70;0.90;;;16.50;99.90;;;;;;4986876;28;20188;-57
2021/06/30 02:16:26;;;;;;;1.73;1.20;;;16.40;99.90;;;;;;4976863;28;20836;-57
2021/06/30 02:18:52;;;;;;;1.50;0.90;;;16.20;99.90;;;;;;4986493;28;20462;-57
2021/06/30 02:21:18;;;;;;;1.38;0.90;;;16.10;99.90;;;;;;4983089;28;20212;-57
2021/06/30 02:23:44;;;;;;;3.07;1.40;;;16.00;99.90;;;;;;4976579;28;20200;-56
2021/06/30 02:26:09;;;;;;;6.10;0.90;;;16.00;99.90;;;;;;4984977;28;20963;-57
2021/06/30 02:28:35;;;;;;;1.67;0.90;;;16.00;99.90;;;;;;4988821;28;20199;-56
2021/06/30 02:31:01;;;;;;;1.83;0.87;;;15.90;99.90;;;;;;4976715;28;20224;-57
2021/06/30 02:33:27;;;;;;;0.95;0.95;;;16.00;99.90;;;;;;4984509;28;20191;-56
2021/06/30 02:35:53;;;;;;;1.13;0.67;;;16.00;99.90;;;;;;4995326;28;20192;-57
2021/06/30 02:38:19;;;;;;;1.10;0.90;;;15.80;99.90;;;;;;4980074;28;20474;-58
2021/06/30 02:40:44;;;;;;;1.73;0.70;;;15.80;99.90;;;;;;4979406;28;20790;-57
2021/06/30 02:43:10;;;;;;;0.70;0.70;;;15.70;99.90;;;;;;4984375;28;20200;-57
2021/06/30 02:45:36;;;;;;;0.70;0.67;;;15.70;99.90;;;;;;4971885;28;20188;-58
2021/06/30 02:48:02;;;;;;;0.80;0.70;;;15.60;99.90;;;;;;4983528;28;20469;-57
2021/06/30 02:50:28;;;;;;;1.17;0.90;;;15.80;99.90;;;;;;4983372;28;20183;-57
2021/06/30 02:52:54;;;;;;;1.43;0.80;;;15.70;99.90;;;;;;4973804;28;20818;-57
2021/06/30 02:55:20;;;;;;;1.10;0.70;;;15.40;99.90;;;;;;4978132;28;20439;-57
2021/06/30 02:57:48;;;;;;;0.70;0.67;;;15.60;99.90;;;;;;4981612;28;20242;-56
2021/06/30 03:00:22;;;;;;;2.75;1.35;;;15.70;99.90;;;;;;4987937;28;20446;-57
2021/06/30 03:02:49;;;;;;;1.15;0.70;;;15.60;99.90;;;;;;4977122;28;20187;-57
2021/06/30 03:05:15;;;;;;;1.35;0.65;;;15.70;99.90;;;;;;4984000;28;20199;-57
2021/06/30 03:07:40;;;;;;;0.98;0.85;;;15.60;99.90;;;;;;4970622;28;21740;-57
2021/06/30 03:10:08;;;;;;;0.80;0.73;;;15.40;99.90;;;;;;4977428;28;20278;-58
2021/06/30 03:12:38;;;;;;;1.27;0.60;;;15.40;99.90;;;;;;4982647;28;20188;-57
2021/06/30 03:15:06;;;;;;;0.60;0.50;;;15.60;99.90;;;;;;4983012;28;20537;-57
2021/06/30 03:17:34;;;;;;;0.70;0.70;;;15.00;99.90;;;;;;4978984;28;20258;-57
2021/06/30 03:20:00;;;;;;;0.73;0.60;;;15.60;99.90;;;;;;4984157;28;20207;-57
2021/06/30 03:22:26;;;;;;;0.80;0.70;;;15.30;99.90;;;;;;4980411;28;20196;-57
2021/06/30 03:24:53;;;;;;;0.70;0.50;;;15.60;99.90;;;;;;4977457;28;20271;-56
2021/06/30 03:27:19;;;;;;;0.60;0.50;;;15.60;99.90;;;;;;4987847;28;20222;-58
2021/06/30 03:29:45;;;;;;;0.70;0.70;;;15.60;99.90;;;;;;4987551;28;20612;-58
2021/06/30 03:32:10;;;;;;;1.90;0.83;;;15.60;99.90;;;;;;4980619;28;20218;-58
2021/06/30 03:34:36;;;;;;;0.67;0.60;;;15.40;99.90;;;;;;4974491;28;20199;-56
2021/06/30 03:37:02;;;;;;;0.70;0.67;;;15.20;99.90;;;;;;4979200;28;20592;-57
2021/06/30 03:39:27;;;;;;;2.00;0.87;;;15.20;99.90;;;;;;4985234;28;20548;-57
2021/06/30 03:41:53;;;;;;;0.93;0.70;;;15.00;99.90;;;;;;4979376;28;20613;-58
2021/06/30 03:44:18;;;;;;;1.30;0.70;;;15.30;99.90;;;;;;4979298;28;20185;-57
2021/06/30 03:46:44;;;;;;;0.70;0.60;;;15.20;99.90;;;;;;4981359;28;20234;-58
2021/06/30 03:49:10;;;;;;;0.80;0.77;;;15.20;99.90;;;;;;4983502;28;20581;-57
2021/06/30 03:51:35;;;;;;;2.57;0.90;;;15.10;99.90;;;;;;4977944;28;20190;-56
2021/06/30 03:54:01;;;;;;;2.40;0.60;;;15.30;99.90;;;;;;4982724;28;20288;-57
2021/06/30 03:56:27;;;;;;;1.00;0.70;;;15.30;99.90;;;;;;4981169;28;20273;-58
2021/06/30 03:58:54;;;;;;;0.77;0.70;;;15.40;99.90;;;;;;4970890;28;20259;-57
2021/06/30 04:01:21;;;;;;;1.10;0.90;;;15.00;99.90;;;;;;4985399;28;20279;-57
2021/06/30 04:03:52;;;;;;;3.65;0.80;;;15.00;99.90;;;;;;4983146;28;20196;-58
2021/06/30 04:06:18;;;;;;;0.70;0.70;;;15.00;99.90;;;;;;4986303;28;20208;-57
2021/06/30 04:08:44;;;;;;;0.70;0.67;;;15.40;99.90;;;;;;4977340;28;20208;-57
2021/06/30 04:11:12;;;;;;;0.90;0.80;;;15.10;99.90;;;;;;4980179;28;20180;-56
2021/06/30 04:13:38;;;;;;;0.70;0.70;;;15.40;99.90;;;;;;4970379;28;20188;-57
2021/06/30 04:16:04;;;;;;;0.70;0.70;;;15.60;99.90;;;;;;4985383;28;20562;-56
2021/06/30 04:18:30;;;;;;;0.90;0.70;;;15.30;99.90;;;;;;4985215;28;20298;-57
2021/06/30 04:20:55;;;;;;;0.70;0.60;;;15.60;99.90;;;;;;4973951;28;20439;-56
2021/06/30 04:23:21;;;;;;;0.80;0.60;;;15.50;99.90;;;;;;4988965;28;20705;-57
2021/06/30 04:25:47;;;;;;;1.77;0.90;;;15.40;99.90;;;;;;4982081;28;20180;-57
2021/06/30 04:28:14;;;;;;;0.70;0.70;;;15.60;99.90;;;;;;4981555;28;20208;-57
2021/06/30 04:30:41;;;;;;;0.80;0.77;;;15.60;99.90;;;;;;4984546;28;20208;-57
2021/06/30 04:33:07;;;;;;;2.95;0.80;;;15.70;99.90;;;;;;4977171;28;20199;-57
2021/06/30 04:35:33;;;;;;;0.77;0.75;;;15.60;99.90;;;;;;4984673;28;20199;-57
2021/06/30 04:38:00;;;;;;;0.80;0.60;;;16.00;99.90;;;;;;4976767;28;20274;-57
2021/06/30 04:40:26;;;;;;;1.50;0.90;;;15.40;99.90;;;;;;4975893;28;20199;-57
2021/06/30 04:42:51;;;;;;;1.83;0.97;;;15.80;99.90;;;;;;4976142;28;20189;-57
2021/06/30 04:45:17;;;;;;;0.70;0.70;;;15.80;99.90;;;;;;4979036;28;20188;-57
2021/06/30 04:47:43;;;;;;;1.10;0.80;;;15.70;99.90;;;;;;4980473;28;20216;-57
2021/06/30 04:50:09;;;;;;;1.33;0.70;;;16.10;99.90;;;;;;4986678;28;20195;-56
2021/06/30 04:52:35;;;;;;;0.70;0.70;;;16.00;99.90;;;;;;4976440;28;20192;-57
2021/06/30 04:55:01;;;;;;;0.90;0.80;;;16.00;99.90;;;;;;4986006;28;20195;-57
2021/06/30 04:57:26;;;;;;;0.90;0.70;;;16.00;99.90;;;;;;4988314;28;20235;-66
2021/06/30 04:59:52;;;;;;;0.93;0.83;;;16.20;99.90;;;;;;4979212;28;20234;-57
2021/06/30 05:02:17;;;;;;;1.10;0.77;;;16.10;99.90;;;;;;4981924;28;20827;-57
2021/06/30 05:04:43;;;;;;;0.70;0.70;;;16.30;99.90;;;;;;4980574;28;20204;-56
2021/06/30 05:07:08;;;;;;;0.93;0.60;;;16.30;99.90;;;;;;4985474;28;20184;-57
2021/06/30 05:09:34;;;;;;;0.73;0.73;;;16.60;99.90;;;;;;4980761;28;20294;-57
2021/06/30 05:12:00;;;;;;;1.07;0.90;;;16.30;99.90;;;;;;4984228;28;20526;-56
2021/06/30 05:14:25;;;;;;;1.00;0.90;;;16.30;99.90;;;;;;4986762;28;20227;-57
2021/06/30 05:16:51;;;;;;;1.93;0.90;;;16.30;99.90;;;;;;4982062;28;20777;-58
2021/06/30 05:19:17;;;;;;;1.27;0.70;;;15.90;99.90;;;;;;4982767;28;20247;-57
2021/06/30 05:21:42;;;;;;;1.07;0.70;;;16.10;99.90;;;;;;4982507;28;20192;-58
2021/06/30 05:24:08;;;;;;;3.10;0.80;;;16.00;99.90;;;;;;4987510;28;20196;-58
2021/06/30 05:26:34;;;;;;;1.00;0.90;;;16.30;99.90;;;;;;4982002;28;20557;-57
2021/06/30 05:29:00;;;;;;;1.30;0.93;;;16.50;99.90;;;;;;4988591;28;20589;-58
2021/06/30 05:31:25;;;;;;;1.10;0.87;;;16.10;99.90;;;;;;4979110;28;20199;-57
2021/06/30 05:33:51;;;;;;;0.80;0.80;;;16.10;99.90;;;;;;5006527;28;20210;-56
2021/06/30 05:36:17;;;;;;;1.10;1.00;;;16.50;99.90;;;;;;4976622;28;20679;-57
2021/06/30 05:38:42;;;;;;;0.90;0.80;;;16.70;99.90;;;;;;4983848;28;20212;-56
2021/06/30 05:41:10;;;;;;;1.60;0.80;;;16.90;99.90;;;;;;4978868;28;20199;-57
2021/06/30 05:43:37;;;;;;;1.15;0.90;;;16.90;99.90;;;;;;4983552;28;21017;-58
2021/06/30 05:46:04;;;;;;;1.48;0.90;;;16.90;99.90;;;;;;4982692;28;20188;-56
2021/06/30 05:48:30;;;;;;;2.95;0.80;;;17.20;99.90;;;;;;4977651;28;20266;-55
2021/06/30 05:50:56;;;;;;;0.70;0.63;;;17.30;99.90;;;;;;4979431;28;20216;-56
2021/06/30 06:06:49;;;;;;;1.15;0.70;;;17.60;99.90;;;;;;4980627;28;20271;-55
2021/06/30 06:09:15;;;;;;;1.10;1.00;;;17.70;99.90;;;;;;4983383;28;20670;-55
2021/06/30 06:11:41;;;;;;;0.80;0.70;;;17.70;99.90;;;;;;4993717;28;20190;-57
2021/06/30 06:14:06;;;;;;;1.47;1.23;;;17.80;99.90;;;;;;4977597;28;20275;-57
2021/06/30 06:16:32;;;;;;;1.10;1.00;;;17.90;99.90;;;;;;4986874;28;20211;-56
2021/06/30 06:18:58;;;;;;;0.80;0.80;;;18.00;99.90;;;;;;4986926;28;20229;-56
2021/06/30 06:21:23;;;;;;;1.17;1.03;;;18.20;99.90;;;;;;4982700;28;20176;-56
2021/06/30 06:23:49;;;;;;;1.37;0.80;;;18.40;99.90;;;;;;4981848;28;20206;-57
2021/06/30 06:26:16;;;;;;;1.57;0.93;;;18.70;99.90;;;;;;4983282;28;20203;-58
2021/06/30 06:28:42;;;;;;;1.40;0.98;;;18.80;99.90;;;;;;4983286;28;20645;-57
2021/06/30 06:31:12;;;;;;;1.10;1.00;;;18.80;99.90;;;;;;4975872;28;20188;-56
2021/06/30 06:33:38;;;;;;;1.77;1.48;;;19.00;99.90;;;;;;4985155;28;20753;-57
2021/06/30 06:36:05;;;;;;;1.23;0.80;;;18.80;99.90;;;;;;4978998;28;20189;-57
2021/06/30 06:38:31;;;;;;;1.33;0.75;;;19.10;99.90;;;;;;4984122;28;20285;-57
2021/06/30 06:40:57;;;;;;;0.70;0.65;;;19.30;99.90;;;;;;4977300;28;20196;-56
2021/06/30 06:43:22;;;;;;;0.87;0.80;;;19.50;99.90;;;;;;4986652;28;20191;-57
2021/06/30 06:45:48;;;;;;;0.97;0.70;;;19.60;99.90;;;;;;4982906;28;20192;-57
2021/06/30 06:48:14;;;;;;;1.07;1.00;;;19.70;99.90;;;;;;4978674;28;20493;-58
2021/06/30 06:50:40;;;;;;;2.77;0.87;;;19.50;99.90;;;;;;4984622;28;20216;-57
2021/06/30 06:53:05;;;;;;;0.90;0.90;;;19.50;99.90;;;;;;4983078;28;20195;-57
2021/06/30 06:55:33;;;;;;;1.93;1.17;;;19.70;99.90;;;;;;4977638;28;20185;-58
2021/06/30 06:57:59;;;;;;;0.95;0.90;;;19.70;99.90;;;;;;4980900;28;20720;-58
2021/06/30 07:00:25;;;;;;;0.80;0.70;;;19.90;99.90;;;;;;4980329;28;20185;-56
2021/06/30 07:02:51;;;;;;;1.77;0.98;;;20.00;99.90;;;;;;4971999;28;20180;-56
2021/06/30 07:05:17;;;;;;;1.40;1.00;;;20.00;99.90;;;;;;4985525;28;20317;-56
2021/06/30 07:07:43;;;;;;;2.20;1.07;;;20.20;99.90;;;;;;4980328;28;20211;-56
2021/06/30 07:10:11;;;;;;;3.53;1.30;;;20.20;99.90;;;;;;4984220;28;20199;-57
2021/06/30 07:12:37;;;;;;;1.83;1.45;;;20.20;99.90;;;;;;4986735;28;20222;-58
2021/06/30 07:15:04;;;;;;;1.50;0.90;;;20.40;99.40;;;;;;4974061;28;20200;-57
2021/06/30 07:17:30;;;;;;;0.80;0.70;;;20.90;98.60;;;;;;4980307;28;20274;-55
2021/06/30 07:19:56;;;;;;;1.10;0.87;;;21.20;97.30;;;;;;4977354;28;20665;-57
2021/06/30 07:22:21;;;;;;;1.17;0.80;;;21.90;95.40;;;;;;4982992;28;20501;-56
2021/06/30 07:24:47;;;;;;;0.90;0.67;;;22.50;93.90;;;;;;4987822;28;20461;-56
2021/06/30 07:27:13;;;;;;;1.20;0.70;;;22.70;92.40;;;;;;4977302;28;20447;-55
2021/06/30 07:29:39;;;;;;;0.90;0.80;;;22.90;92.00;;;;;;4981549;28;20553;-56
2021/06/30 07:32:05;;;;;;;1.30;0.80;;;22.90;91.90;;;;;;4986745;28;20199;-56
2021/06/30 07:34:31;;;;;;;1.20;1.10;;;23.00;91.30;;;;;;4980274;28;20188;-58
2021/06/30 07:36:56;;;;;;;1.20;0.60;;;23.30;90.70;;;;;;4983568;28;20974;-57
2021/06/30 07:39:24;;;;;;;1.37;0.60;;;23.80;90.30;;;;;;4977853;28;20208;-56
2021/06/30 07:41:50;;;;;;;0.80;0.70;;;24.10;89.30;;;;;;4978775;28;20187;-55
2021/06/30 07:44:16;;;;;;;8.20;1.03;;;23.90;86.70;;;;;;4986540;28;20439;-56
2021/06/30 07:46:42;;;;;;;1.90;0.90;;;23.40;87.60;;;;;;4982943;28;20446;-57
2021/06/30 07:49:07;;;;;;;0.83;0.60;;;23.00;87.90;;;;;;4973011;28;20208;-54
2021/06/30 07:51:34;;;;;;;1.10;0.60;;;22.70;89.10;;;;;;4976560;28;20183;-54
2021/06/30 07:53:59;;;;;;;0.90;0.70;;;22.50;89.50;;;;;;4979941;28;20195;-54
2021/06/30 07:56:34;;;;;;;1.50;1.30;;;22.40;90.10;;;;;;4979129;28;20190;-56
2021/06/30 07:59:07;;;;;;;1.60;0.80;;;22.50;90.20;;;;;;4978042;28;20198;-57
2021/06/30 08:01:34;;;;;;;1.03;0.70;;;22.50;90.40;;;;;;4976796;28;20779;-57
2021/06/30 08:04:00;;;;;;;0.93;0.80;;;22.60;90.50;;;;;;4976709;28;20440;-56
2021/06/30 08:06:27;;;;;;;1.43;0.70;;;22.90;89.10;;;;;;4977087;28;20872;-56
2021/06/30 08:08:53;;;;;;;0.80;0.60;;;23.00;88.20;;;;;;4984061;28;20485;-56
2021/06/30 08:11:19;;;;;;;1.40;0.70;;;23.60;88.10;;;;;;4983717;28;20967;-57
2021/06/30 08:13:45;;;;;;;2.50;0.50;;;23.90;86.80;;;;;;4984248;28;20547;-56
2021/06/30 08:16:11;;;;;;;1.43;0.90;;;23.70;86.80;;;;;;4977543;28;20850;-55
2021/06/30 08:18:36;;;;;;;0.90;0.70;;;23.30;87.60;;;;;;4978337;28;20254;-56
2021/06/30 08:21:02;;;;;;;0.60;0.50;;;22.60;89.20;;;;;;4979355;28;20184;-56
2021/06/30 08:23:28;;;;;;;0.80;0.60;;;22.40;90.80;;;;;;4979877;28;20571;-54
2021/06/30 08:25:54;;;;;;;0.70;0.60;;;21.80;91.10;;;;;;4978443;28;20185;-56
2021/06/30 08:28:24;;;;;;;0.90;0.70;;;22.20;91.70;;;;;;4977960;28;20218;-56
2021/06/30 08:30:50;;;;;;;1.77;0.60;;;23.70;89.90;;;;;;4981410;28;20195;-56
2021/06/30 08:33:16;;;;;;;3.33;0.60;;;23.60;86.40;;;;;;4981607;28;20948;-56
2021/06/30 08:35:42;;;;;;;0.70;0.60;;;23.90;86.90;;;;;;4986624;28;20444;-55
2021/06/30 08:38:08;;;;;;;1.03;0.90;;;26.10;83.70;;;;;;4984483;28;20537;-57
2021/06/30 08:40:37;;;;;;;1.47;1.07;;;28.00;77.00;;;;;;4984154;28;20245;-57
2021/06/30 08:43:03;;;;;;;2.60;0.60;;;29.20;67.50;;;;;;4983155;28;20446;-55
2021/06/30 08:45:28;;;;;;;1.17;0.70;;;28.30;65.70;;;;;;4978514;28;20439;-55
2021/06/30 08:47:55;;;;;;;1.20;1.10;;;27.70;68.40;;;;;;4984552;28;20472;-55
2021/06/30 08:50:22;;;;;;;0.93;0.70;;;27.00;70.80;;;;;;4980452;28;20653;-55
2021/06/30 08:52:49;;;;;;;1.33;0.80;;;25.50;73.90;;;;;;4982450;28;20440;-56
2021/06/30 08:55:18;;;;;;;0.93;0.60;;;24.80;76.90;;;;;;4978890;28;20446;-55
2021/06/30 08:57:49;;;;;;;0.83;0.80;;;23.60;79.30;;;;;;4984093;28;20474;-56
2021/06/30 09:00:16;;;;;;;0.97;0.93;;;23.10;83.40;;;;;;4984932;28;20526;-55
2021/06/30 09:02:47;;;;;;;0.90;0.70;;;23.40;83.90;;;;;;4980633;28;20460;-55
2021/06/30 09:07:50;;;;;;;1.10;1.00;;;22.70;85.70;;;;;;4980029;28;20572;-57
2021/06/30 09:10:34;;;;;;;4.30;4.00;;;22.40;86.20;;;;;;4982890;28;20451;-56
2021/06/30 09:13:02;;;;;;;0.80;0.70;;;21.90;88.00;;;;;;4982440;28;20192;-55
2021/06/30 09:15:31;;;;;;;1.38;0.73;;;21.50;89.00;;;;;;4991437;28;20188;-56
2021/06/30 09:18:31;;;;;;;1.63;1.00;;;21.50;89.70;;;;;;4986098;28;20582;-57
2021/06/30 09:21:20;;;;;;;1.73;0.97;;;21.70;89.70;;;;;;4974713;28;20230;-57
2021/06/30 09:23:59;;;;;;;1.00;0.93;;;22.00;88.40;;;;;;4978529;28;20459;-57
2021/06/30 09:26:26;;;;;;;0.70;0.60;;;22.50;86.20;;;;;;4981142;28;20453;-57
2021/06/30 09:29:08;;;;;;;1.10;0.80;;;22.70;85.40;;;;;;4979549;28;20509;-56
2021/06/30 09:31:35;;;;;;;1.37;1.27;;;23.20;83.30;;;;;;4982030;28;20856;-56
2021/06/30 09:34:02;;;;;;;2.40;2.20;;;23.50;83.50;;;;;;4974462;28;20434;-57
2021/06/30 09:37:01;;;;;;;1.00;0.70;;;23.70;83.80;;;;;;4976448;28;20438;-58
2021/06/30 09:39:28;;;;;;;0.70;0.50;;;25.20;79.30;;;;;;4972662;28;20538;-57
2021/06/30 09:42:03;;;;;;;1.77;0.80;;;25.90;72.40;;;;;;4986239;28;20441;-56
2021/06/30 09:44:30;;;;;;;0.70;0.60;;;25.80;73.30;;;;;;4980285;28;20509;-57
2021/06/30 09:46:56;;;;;;;3.90;0.70;;;26.50;71.00;;;;;;4986933;28;20453;-57
2021/06/30 09:49:23;;;;;;;0.70;0.60;;;27.30;68.00;;;;;;4984368;28;20457;-57
2021/06/30 09:52:04;;;;;;;1.37;0.70;;;27.10;66.50;;;;;;4978146;28;20193;-56
2021/06/30 09:54:32;;;;;;;1.17;0.63;;;26.60;70.50;;;;;;4987277;28;20437;-56
2021/06/30 09:57:00;;;;;;;1.90;0.80;;;25.00;76.00;;;;;;4985071;28;20488;-56
2021/06/30 09:59:33;;;;;;;2.03;0.77;;;24.40;82.50;;;;;;4980590;28;20462;-56
2021/06/30 10:02:03;;;;;;;2.00;0.70;;;23.40;88.00;;;;;;4982924;28;20560;-56
2021/06/30 10:04:43;;;;;;;0.70;0.60;;;22.80;90.30;;;;;;4973454;28;20442;-55
2021/06/30 10:07:13;;;;;;;0.80;0.70;;;22.40;91.30;;;;;;4975941;28;20198;-55
2021/06/30 10:09:56;;;;;;;1.30;1.20;;;22.50;93.80;;;;;;4980668;28;20192;-55
2021/06/30 10:12:27;;;;;;;0.70;0.67;;;23.40;93.50;;;;;;4985352;28;20457;-55
2021/06/30 10:14:54;;;;;;;1.57;1.30;;;24.50;87.60;;;;;;4977280;28;20446;-56
2021/06/30 10:17:21;;;;;;;2.73;0.90;;;24.90;85.40;;;;;;4986110;28;20468;-55
2021/06/30 10:19:48;;;;;;;1.57;0.90;;;25.10;83.60;;;;;;4981278;28;20812;-55
2021/06/30 10:22:15;;;;;;;1.37;0.70;;;25.00;88.40;;;;;;4988644;28;20468;-54
2021/06/30 10:24:41;;;;;;;2.07;0.70;;;26.40;79.30;;;;;;4979750;28;20532;-55
2021/06/30 10:27:09;;;;;;;1.30;0.70;;;27.30;76.20;;;;;;4988055;28;21031;-56
2021/06/30 10:29:40;;;;;;;0.80;0.70;;;28.50;69.00;;;;;;4979759;28;20554;-56
2021/06/30 10:32:07;;;;;;;2.80;2.47;;;29.30;62.70;;;;;;4979673;28;21632;-56
2021/06/30 10:34:48;;;;;;;1.00;0.60;;;29.20;60.10;;;;;;4983065;28;20506;-55
2021/06/30 10:37:36;;;;;;;2.40;0.87;;;27.70;61.50;;;;;;4978803;28;20982;-55
2021/06/30 10:40:13;;;;;;;1.10;1.00;;;27.40;63.10;;;;;;4982875;28;20452;-55
2021/06/30 10:42:47;;;;;;;1.00;0.70;;;26.40;65.80;;;;;;4985495;28;20523;-56
2021/06/30 10:45:13;;;;;;;1.23;0.70;;;25.60;66.70;;;;;;4971383;28;20573;-55
2021/06/30 10:47:45;;;;;;;1.00;0.80;;;25.90;67.90;;;;;;4978401;28;21183;-55
2021/06/30 10:50:17;;;;;;;1.00;0.70;;;26.50;66.30;;;;;;4981389;28;20217;-56
2021/06/30 10:52:44;;;;;;;0.70;0.63;;;27.40;62.20;;;;;;4983741;28;20446;-56
2021/06/30 10:55:31;;;;;;;1.00;0.70;;;27.10;61.50;;;;;;4975877;28;20558;-56
2021/06/30 10:58:15;;;;;;;1.00;0.90;;;25.40;66.50;;;;;;4977702;28;20488;-56
2021/06/30 11:00:41;;;;;;;2.20;0.80;;;25.20;71.10;;;;;;4980109;28;20451;-56
2021/06/30 11:03:23;;;;;;;1.00;0.90;;;24.50;71.60;;;;;;4977510;28;20440;-56
2021/06/30 11:05:51;;;;;;;2.27;0.90;;;24.10;74.50;;;;;;4982749;28;20199;-55
2021/06/30 11:08:46;;;;;;;0.80;0.80;;;23.60;76.30;;;;;;4979230;28;20462;-57
2021/06/30 11:11:33;;;;;;;0.88;0.80;;;23.20;78.60;;;;;;4982837;28;20461;-57
2021/06/30 11:14:02;;;;;;;2.85;0.70;;;22.90;81.20;;;;;;4969607;28;20423;-57
2021/06/30 11:16:37;;;;;;;1.05;0.95;;;22.30;81.30;;;;;;4982006;28;20661;-58
2021/06/30 11:19:04;;;;;;;1.20;0.80;;;22.00;83.00;;;;;;4975242;28;20283;-58
2021/06/30 11:21:52;;;;;;;1.50;1.23;;;21.80;84.00;;;;;;4977507;28;20652;-58
2021/06/30 11:24:38;;;;;;;1.00;0.70;;;21.60;84.60;;;;;;4981088;28;20213;-57
2021/06/30 11:27:07;;;;;;;1.48;1.10;;;21.80;84.20;;;;;;4975822;28;20704;-55
2021/06/30 11:29:55;;;;;;;1.50;1.40;;;22.10;84.40;;;;;;4974760;28;20724;-56
2021/06/30 11:35:00;;;;;;;1.27;1.17;;;23.00;81.20;;;;;;4975436;28;20475;-56
2021/06/30 11:37:28;;;;;;;1.37;0.93;;;23.40;76.10;;;;;;4977886;28;20212;-57
2021/06/30 11:39:56;;;;;;;3.73;0.80;;;23.50;74.70;;;;;;4975720;28;20975;-57
2021/06/30 11:42:37;;;;;;;2.30;1.00;;;23.30;72.30;;;;;;4974444;28;20463;-57
2021/06/30 11:45:20;;;;;;;2.00;1.23;;;23.30;72.90;;;;;;4980990;28;21043;-59
2021/06/30 11:47:50;;;;;;;1.55;0.75;;;23.30;77.20;;;;;;4978630;28;20466;-58
2021/06/30 11:50:17;;;;;;;1.27;0.80;;;22.80;78.30;;;;;;4987900;28;20200;-57
2021/06/30 11:52:44;;;;;;;0.80;0.70;;;22.70;80.70;;;;;;4983185;28;20195;-58
2021/06/30 11:55:10;;;;;;;0.70;0.70;;;22.40;81.00;;;;;;4977556;28;20194;-57
2021/06/30 11:57:53;;;;;;;1.05;0.65;;;22.10;83.80;;;;;;4981186;28;20226;-57
2021/06/30 12:00:19;;;;;;;0.90;0.80;;;21.40;91.30;;;;;;4975947;28;20231;-56
2021/06/30 12:02:50;;;;;;;0.80;0.77;;;20.60;94.80;;;;;;4977152;28;20191;-56
2021/06/30 12:05:18;;;;;;;0.88;0.80;;;20.10;95.90;;;;;;4987599;28;20254;-56
2021/06/30 12:07:46;;;;;;;1.27;0.90;;;19.90;98.60;;;;;;4985418;28;20238;-57
2021/06/30 12:10:13;;;;;;;1.52;0.80;;;19.90;98.90;;;;;;4994290;28;20202;-58
2021/06/30 12:12:39;;;;;;;0.70;0.65;;;20.00;99.10;;;;;;4987838;28;20196;-56
2021/06/30 12:15:07;;;;;;;2.45;0.90;;;20.00;99.90;;;;;;4982311;28;20233;-58
2021/06/30 12:17:32;;;;;;;1.20;1.08;;;20.20;99.10;;;;;;4981462;28;20227;-58
2021/06/30 12:20:03;;;;;;;1.73;1.03;;;20.50;99.90;;;;;;4991627;28;20191;-57
2021/06/30 12:22:37;;;;;;;1.75;1.00;;;20.60;99.90;;;;;;4990959;28;20219;-57
2021/06/30 12:25:04;;;;;;;2.28;0.90;;;20.90;99.90;;;;;;4979517;28;20211;-57
2021/06/30 12:27:35;;;;;;;1.10;1.00;;;21.20;99.00;;;;;;4983165;28;20184;-57
2021/06/30 12:30:07;;;;;;;1.60;0.90;;;21.40;98.20;;;;;;4985743;28;21093;-57
2021/06/30 12:32:34;;;;;;;2.15;0.90;;;21.20;98.00;;;;;;4983267;28;20219;-57
2021/06/30 12:35:03;;;;;;;1.35;1.13;;;21.10;98.30;;;;;;4989253;28;20215;-57
2021/06/30 12:37:29;;;;;;;1.15;1.02;;;21.10;99.40;;;;;;4986575;28;20227;-56
2021/06/30 12:40:03;;;;;;;1.02;0.80;;;21.10;98.20;;;;;;4983326;28;20184;-57
2021/06/30 12:42:49;;;;;;;1.52;1.30;;;21.10;98.40;;;;;;4990377;28;20695;-57
2021/06/30 12:45:18;;;;;;;1.55;0.90;;;20.90;99.40;;;;;;4998194;28;20227;-57
2021/06/30 12:47:49;;;;;;;1.75;0.90;;;20.90;98.70;;;;;;4980174;28;20689;-56
2021/06/30 12:50:15;;;;;;;0.90;0.80;;;21.00;99.50;;;;;;4983476;28;20663;-59
2021/06/30 12:52:41;;;;;;;2.10;0.97;;;21.30;98.50;;;;;;4984000;28;20195;-57
2021/06/30 12:55:08;;;;;;;0.80;0.80;;;21.50;98.40;;;;;;4984359;28;20188;-54
2021/06/30 12:57:56;;;;;;;0.75;0.75;;;21.80;96.70;;;;;;4989977;28;20212;-55
2021/06/30 13:00:24;;;;;;;1.20;1.10;;;21.60;95.40;;;;;;4980751;28;20290;-55
2021/06/30 13:03:08;;;;;;;1.40;0.80;;;21.80;94.10;;;;;;4992895;28;20657;-54
2021/06/30 13:05:34;;;;;;;1.00;0.90;;;21.80;93.80;;;;;;4992584;28;20191;-54
2021/06/30 13:08:00;;;;;;;4.30;0.83;;;21.80;92.90;;;;;;4984738;28;20212;-55
2021/06/30 13:10:26;;;;;;;2.90;0.90;;;21.60;93.10;;;;;;4986538;28;20797;-55
2021/06/30 13:13:07;;;;;;;1.93;1.07;;;21.60;93.80;;;;;;4990678;28;20184;-55